createdAt,value
2023-05-10T00:01:09.044Z,12.04
2023-05-10T00:03:36.981Z,11.97
2023-05-10T00:06:04.689Z,12.10
2023-05-10T00:08:32.419Z,11.94
2023-05-10T00:11:00.011Z,12.14
2023-05-10T00:13:27.742Z,11.96
2023-05-10T00:15:55.413Z,12.38
2023-05-10T00:18:23.051Z,12.78
2023-05-10T00:20:50.819Z,12.78
2023-05-10T00:23:18.533Z,12.06
2023-05-10T00:25:46.254Z,11.98
2023-05-10T00:28:13.904Z,11.58
2023-05-10T00:30:41.625Z,11.32
2023-05-10T00:33:09.314Z,11.67
2023-05-10T00:35:37.061Z,11.78
2023-05-10T00:38:04.898Z,12.42
2023-05-10T00:40:32.617Z,12.21
2023-05-10T00:43:06.163Z,11.47
2023-05-10T00:45:34.420Z,12.22
2023-05-10T00:48:06.077Z,12.20
2023-05-10T00:50:34.623Z,12.12
2023-05-10T00:53:03.225Z,12.31
2023-05-10T00:55:31.938Z,12.28
2023-05-10T00:58:00.145Z,12.52
2023-05-10T01:00:27.868Z,11.93
2023-05-10T01:02:55.698Z,12.10
2023-05-10T01:05:23.877Z,11.65
2023-05-10T01:07:52.173Z,11.90
2023-05-10T01:10:20.410Z,11.63
2023-05-10T01:12:48.635Z,11.56
2023-05-10T01:15:18.916Z,11.13
2023-05-10T01:17:48.280Z,11.37
2023-05-10T01:20:19.041Z,11.18
2023-05-10T01:23:12.619Z,11.66
2023-05-10T01:26:16.648Z,11.68
2023-05-10T01:29:33.943Z,11.34
2023-05-10T01:32:44.553Z,11.29
2023-05-10T01:35:54.659Z,11.66
2023-05-10T01:38:41.331Z,11.78
2023-05-10T01:41:41.931Z,11.48
2023-05-10T01:44:35.756Z,11.47
2023-05-10T01:47:24.087Z,11.00
2023-05-10T01:49:56.251Z,11.42
2023-05-10T01:52:31.450Z,11.32
2023-05-10T01:55:10.390Z,11.40
2023-05-10T01:57:40.733Z,11.61
2023-05-10T02:00:10.710Z,11.67
2023-05-10T02:02:47.727Z,11.75
2023-05-10T02:05:18.143Z,11.53
2023-05-10T02:07:46.496Z,10.96
2023-05-10T02:10:15.515Z,11.36
2023-05-10T02:12:46.962Z,11.37
2023-05-10T02:15:22.341Z,11.28
2023-05-10T02:17:50.725Z,10.56
2023-05-10T02:20:20.186Z,10.83
2023-05-10T02:22:52.513Z,10.56
2023-05-10T02:25:22.331Z,10.97
2023-05-10T02:27:51.226Z,11.24
2023-05-10T02:30:20.156Z,11.17
2023-05-10T02:32:49.715Z,10.81
2023-05-10T02:35:17.695Z,10.70
2023-05-10T02:37:47.778Z,10.80
2023-05-10T02:40:18.602Z,11.21
2023-05-10T02:42:48.604Z,11.10
2023-05-10T02:45:22.824Z,10.77
2023-05-10T02:47:50.746Z,10.68
2023-05-10T02:50:18.996Z,10.61
2023-05-10T02:52:59.193Z,10.57
2023-05-10T02:55:33.284Z,10.65
2023-05-10T02:58:03.197Z,10.42
2023-05-10T03:00:31.880Z,10.51
2023-05-10T03:02:59.832Z,10.32
2023-05-10T03:05:28.069Z,9.60
2023-05-10T03:07:56.568Z,10.31
2023-05-10T03:10:30.127Z,10.10
2023-05-10T03:13:33.616Z,10.28
2023-05-10T03:16:18.085Z,10.25
2023-05-10T03:19:22.831Z,9.65
2023-05-10T03:21:53.570Z,9.38
2023-05-10T03:24:24.139Z,9.50
2023-05-10T03:26:56.622Z,9.62
2023-05-10T03:29:27.251Z,10.24
2023-05-10T03:31:55.049Z,10.25
2023-05-10T03:34:26.157Z,10.89
2023-05-10T03:36:54.013Z,10.41
2023-05-10T03:39:22.371Z,10.78
2023-05-10T03:41:54.812Z,10.58
2023-05-10T03:44:22.576Z,10.51
2023-05-10T03:46:53.046Z,10.32
2023-05-10T03:49:20.976Z,10.39
2023-05-10T03:51:49.087Z,10.40
2023-05-10T03:54:17.194Z,10.22
2023-05-10T03:56:44.833Z,10.28
2023-05-10T03:59:12.476Z,10.41
2023-05-10T04:01:40.455Z,10.24
2023-05-10T04:04:08.113Z,9.72
2023-05-10T04:06:36.028Z,10.33
2023-05-10T04:09:05.385Z,10.16
2023-05-10T04:11:33.205Z,10.85
2023-05-10T04:14:00.834Z,11.03
2023-05-10T04:16:28.525Z,10.20
2023-05-10T04:18:56.284Z,10.29
2023-05-10T04:21:23.899Z,10.36
2023-05-10T04:23:51.602Z,9.70
2023-05-10T04:26:19.408Z,10.05
2023-05-10T04:28:47.102Z,10.07
2023-05-10T04:31:14.736Z,10.41
2023-05-10T04:33:42.384Z,10.76
2023-05-10T04:36:10.299Z,11.16
2023-05-10T04:38:37.931Z,10.70
2023-05-10T04:41:10.476Z,10.39
2023-05-10T04:43:39.029Z,11.15
2023-05-10T04:46:08.015Z,11.59
2023-05-10T04:48:35.879Z,11.45
2023-05-10T04:51:04.947Z,11.26
2023-05-10T04:53:32.896Z,10.46
2023-05-10T04:56:00.523Z,10.20
2023-05-10T04:58:28.202Z,10.23
2023-05-10T05:00:55.797Z,10.78
2023-05-10T05:03:23.788Z,11.24
2023-05-10T05:05:51.447Z,11.01
2023-05-10T05:08:19.112Z,11.14
2023-05-10T05:10:46.744Z,10.47
2023-05-10T05:13:14.449Z,10.55
2023-05-10T05:15:42.064Z,10.61
2023-05-10T05:18:09.733Z,10.94
2023-05-10T05:20:37.381Z,10.61
2023-05-10T05:23:05.629Z,10.96
2023-05-10T05:25:36.895Z,11.98
2023-05-10T05:28:04.744Z,10.86
2023-05-10T05:30:32.555Z,11.20
2023-05-10T05:33:00.694Z,11.53
2023-05-10T05:35:28.397Z,11.68
2023-05-10T05:37:56.752Z,11.68
2023-05-10T05:40:24.434Z,11.17
2023-05-10T05:42:52.125Z,11.64
2023-05-10T05:45:19.980Z,11.49
2023-05-10T05:47:48.274Z,11.87
2023-05-10T05:50:16.192Z,11.66
2023-05-10T05:52:43.885Z,12.26
2023-05-10T05:55:11.473Z,12.38
2023-05-10T05:57:39.188Z,12.64
2023-05-10T06:00:07.703Z,12.24
2023-05-10T06:02:40.582Z,12.98
2023-05-10T06:05:09.162Z,12.96
2023-05-10T06:07:37.226Z,13.71
2023-05-10T06:10:05.689Z,13.17
2023-05-10T06:12:33.292Z,14.18
2023-05-10T06:15:01.057Z,14.49
2023-05-10T06:17:28.758Z,13.15
2023-05-10T06:19:57.148Z,13.09
2023-05-10T06:22:24.720Z,13.12
2023-05-10T06:24:52.415Z,12.93
2023-05-10T06:27:19.983Z,13.59
2023-05-10T06:29:48.233Z,12.78
2023-05-10T06:32:16.931Z,14.15
2023-05-10T06:34:45.544Z,13.59
2023-05-10T06:37:13.228Z,13.53
2023-05-10T06:39:40.834Z,13.91
2023-05-10T06:42:09.218Z,14.73
2023-05-10T06:44:39.967Z,14.59
2023-05-10T06:47:07.589Z,14.69
2023-05-10T06:49:35.170Z,14.62
2023-05-10T06:52:02.788Z,14.33
2023-05-10T06:54:30.488Z,14.32
2023-05-10T06:56:58.747Z,15.12
2023-05-10T06:59:26.586Z,14.80
2023-05-10T07:01:54.865Z,15.01
2023-05-10T07:04:22.534Z,15.66
2023-05-10T07:06:50.701Z,15.49
2023-05-10T07:09:18.288Z,15.95
2023-05-10T07:11:46.073Z,15.14
2023-05-10T07:14:13.649Z,15.68
2023-05-10T07:16:41.273Z,15.36
2023-05-10T07:19:08.956Z,15.18
2023-05-10T07:21:37.501Z,14.78
2023-05-10T07:24:05.279Z,16.26
2023-05-10T07:26:32.937Z,15.74
2023-05-10T07:29:00.579Z,15.28
2023-05-10T07:31:28.245Z,15.63
2023-05-10T07:33:55.840Z,16.07
2023-05-10T07:36:24.470Z,16.62
2023-05-10T07:38:52.165Z,16.79
2023-05-10T07:41:19.845Z,16.36
2023-05-10T07:43:47.547Z,16.78
2023-05-10T07:46:15.273Z,16.75
2023-05-10T07:48:42.908Z,17.08
2023-05-10T07:51:11.637Z,16.66
2023-05-10T07:53:39.468Z,16.83
2023-05-10T07:56:30.480Z,17.37
2023-05-10T07:59:02.579Z,17.87
2023-05-10T08:01:35.584Z,16.89
2023-05-10T08:04:03.365Z,16.36
2023-05-10T08:06:31.426Z,17.55
2023-05-10T08:09:02.147Z,18.31
2023-05-10T08:11:29.860Z,18.61
2023-05-10T08:13:57.436Z,18.46
2023-05-10T08:16:25.207Z,18.36
2023-05-10T08:18:53.048Z,17.93
2023-05-10T08:21:20.731Z,18.12
2023-05-10T08:23:48.513Z,17.66
2023-05-10T08:26:16.199Z,18.55
2023-05-10T08:28:43.849Z,18.26
2023-05-10T08:31:11.544Z,18.26
2023-05-10T08:33:39.137Z,17.98
2023-05-10T08:36:06.925Z,18.85
2023-05-10T08:38:34.632Z,18.82
2023-05-10T08:41:06.264Z,19.07
2023-05-10T08:43:36.841Z,19.72
2023-05-10T08:46:08.723Z,20.53
2023-05-10T08:48:38.063Z,20.44
2023-05-10T08:51:06.347Z,20.94
2023-05-10T08:53:38.335Z,20.73
2023-05-10T08:56:06.772Z,20.25
2023-05-10T08:58:34.408Z,21.01
2023-05-10T09:01:02.381Z,19.82
2023-05-10T09:03:30.891Z,20.35
2023-05-10T09:05:58.903Z,19.88
2023-05-10T09:08:27.255Z,19.95
2023-05-10T09:10:58.879Z,19.80
2023-05-10T09:13:27.042Z,20.29
2023-05-10T09:15:55.066Z,20.12
2023-05-10T09:18:22.764Z,20.47
2023-05-10T09:20:50.699Z,20.00
2023-05-10T09:23:18.312Z,19.93
2023-05-10T09:25:46.011Z,20.05
2023-05-10T09:28:13.739Z,19.42
2023-05-10T09:30:41.467Z,19.53
2023-05-10T09:33:09.187Z,19.96
2023-05-10T09:35:37.108Z,19.70
2023-05-10T09:38:06.464Z,19.64
2023-05-10T09:40:34.155Z,20.84
2023-05-10T09:43:05.350Z,20.23
2023-05-10T09:45:38.659Z,20.09
2023-05-10T09:48:07.622Z,20.69
2023-05-10T09:50:35.592Z,20.74
2023-05-10T09:53:05.549Z,20.94
2023-05-10T09:55:55.950Z,21.27
2023-05-10T10:01:37.910Z,19.83
2023-05-10T10:04:47.672Z,19.89
2023-05-10T10:07:47.333Z,20.51
2023-05-10T10:11:17.336Z,20.66
2023-05-10T10:14:19.058Z,21.38
2023-05-10T10:16:59.494Z,21.19
2023-05-10T10:19:38.501Z,20.90
2023-05-10T10:22:07.050Z,20.95
2023-05-10T10:24:35.068Z,21.34
2023-05-10T10:27:33.119Z,20.81
2023-05-10T10:30:14.069Z,21.41
2023-05-10T10:33:20.052Z,21.80
2023-05-10T10:35:56.398Z,21.74
2023-05-10T10:38:24.337Z,21.92
2023-05-10T10:41:11.752Z,21.30
2023-05-10T10:43:39.800Z,22.53
2023-05-10T10:46:18.725Z,22.50
2023-05-10T10:49:08.924Z,22.31
2023-05-10T10:51:40.052Z,22.16
2023-05-10T10:54:11.934Z,22.59
2023-05-10T10:56:39.639Z,21.81
2023-05-10T10:59:09.313Z,22.21
2023-05-10T11:01:37.104Z,22.35
2023-05-10T11:04:04.648Z,21.92
2023-05-10T11:06:37.141Z,22.60
2023-05-10T11:09:10.881Z,22.81
2023-05-10T11:11:56.309Z,22.37
2023-05-10T11:14:25.003Z,21.24
2023-05-10T11:16:53.023Z,21.67
2023-05-10T11:19:22.945Z,22.26
2023-05-10T11:22:05.735Z,22.93
2023-05-10T11:24:34.447Z,22.92
2023-05-10T11:27:02.304Z,22.30
2023-05-10T11:29:30.062Z,22.21
2023-05-10T11:32:00.610Z,22.08
2023-05-10T11:34:32.424Z,22.08
2023-05-10T11:37:00.821Z,22.55
2023-05-10T11:39:33.010Z,22.41
2023-05-10T11:42:01.304Z,22.82
2023-05-10T11:44:33.753Z,22.79
2023-05-10T11:47:04.558Z,22.69
2023-05-10T11:49:32.404Z,23.18
2023-05-10T11:52:09.800Z,22.94
2023-05-10T11:54:37.656Z,22.98
2023-05-10T11:57:07.161Z,24.07
2023-05-10T11:59:34.850Z,24.07
2023-05-10T12:02:02.926Z,24.25
2023-05-10T12:04:31.253Z,24.03
2023-05-10T12:06:59.353Z,23.95
2023-05-10T12:09:39.682Z,24.01
2023-05-10T12:12:11.769Z,24.69
2023-05-10T12:14:39.453Z,24.58
2023-05-10T12:17:07.090Z,23.73
2023-05-10T12:19:39.676Z,24.17
2023-05-10T12:22:07.371Z,24.68
2023-05-10T12:24:37.195Z,24.57
2023-05-10T12:27:09.852Z,24.97
2023-05-10T12:29:37.742Z,24.78
2023-05-10T12:32:05.450Z,23.43
2023-05-10T12:34:35.951Z,23.67
2023-05-10T12:37:04.413Z,24.76
2023-05-10T12:39:46.971Z,25.00
2023-05-10T12:42:14.755Z,25.23
2023-05-10T12:44:42.348Z,24.73
2023-05-10T12:47:10.086Z,24.65
2023-05-10T12:49:37.800Z,24.69
2023-05-10T12:52:05.612Z,25.28
2023-05-10T12:54:33.423Z,25.26
2023-05-10T12:57:01.189Z,24.68
2023-05-10T12:59:28.807Z,24.67
2023-05-10T13:01:56.496Z,24.59
2023-05-10T13:04:24.508Z,24.42
2023-05-10T13:06:52.385Z,23.90
2023-05-10T13:09:21.343Z,21.07
2023-05-10T13:11:50.071Z,18.87
2023-05-10T13:14:17.827Z,18.25
2023-05-10T13:16:45.719Z,18.17
2023-05-10T13:19:17.751Z,18.15
2023-05-10T13:21:45.679Z,18.26
2023-05-10T13:24:14.712Z,18.08
2023-05-10T13:26:42.527Z,17.85
2023-05-10T13:29:10.417Z,17.61
2023-05-10T13:31:38.100Z,17.55
2023-05-10T13:34:06.428Z,18.26
2023-05-10T13:36:34.199Z,17.91
2023-05-10T13:39:03.831Z,17.70
2023-05-10T13:41:31.516Z,16.83
2023-05-10T13:43:59.091Z,16.65
2023-05-10T13:46:26.752Z,16.94
2023-05-10T13:48:54.473Z,16.39
2023-05-10T13:51:22.262Z,16.77
2023-05-10T13:53:49.937Z,15.74
2023-05-10T13:56:17.915Z,15.97
2023-05-10T13:58:45.607Z,16.90
2023-05-10T14:01:13.427Z,16.70
2023-05-10T14:03:41.531Z,17.03
2023-05-10T14:06:09.672Z,16.85
2023-05-10T14:08:37.589Z,16.47
2023-05-10T14:11:05.528Z,15.97
2023-05-10T14:13:33.757Z,16.46
2023-05-10T14:16:01.727Z,16.68
2023-05-10T14:18:29.763Z,16.95
2023-05-10T14:20:57.813Z,16.99
2023-05-10T14:23:25.714Z,16.52
2023-05-10T14:25:54.255Z,17.09
2023-05-10T14:28:23.596Z,17.12
2023-05-10T14:30:51.491Z,17.66
2023-05-10T14:33:19.363Z,17.26
2023-05-10T14:35:47.689Z,17.00
2023-05-10T14:38:18.091Z,17.47
2023-05-10T14:40:46.006Z,17.28
2023-05-10T14:43:13.571Z,16.34
2023-05-10T14:45:42.278Z,16.54
2023-05-10T14:48:13.206Z,17.10
2023-05-10T14:50:40.956Z,16.62
2023-05-10T14:53:08.581Z,16.60
2023-05-10T14:55:39.247Z,15.87
2023-05-10T14:58:06.938Z,15.99
2023-05-10T15:00:36.763Z,16.60
2023-05-10T15:03:05.269Z,16.11
2023-05-10T15:05:33.702Z,16.42
2023-05-10T15:08:01.674Z,16.70
2023-05-10T15:10:29.473Z,17.20
2023-05-10T15:12:57.148Z,16.71
2023-05-10T15:15:27.382Z,15.85
2023-05-10T15:17:58.151Z,15.15
2023-05-10T15:20:26.261Z,15.75
2023-05-10T15:22:53.923Z,15.75
2023-05-10T15:25:21.631Z,15.19
2023-05-10T15:27:49.244Z,14.96
2023-05-10T15:30:16.961Z,15.27
2023-05-10T15:32:44.692Z,15.11
2023-05-10T15:35:12.616Z,14.78
2023-05-10T15:37:40.536Z,14.67
2023-05-10T15:40:08.909Z,15.19
2023-05-10T15:42:36.574Z,14.90
2023-05-10T15:45:05.204Z,15.79
2023-05-10T15:47:33.034Z,15.78
2023-05-10T15:50:01.173Z,15.88
2023-05-10T15:52:29.652Z,15.76
2023-05-10T15:54:57.361Z,15.63
2023-05-10T15:57:27.729Z,15.83
2023-05-10T15:59:56.299Z,15.80
2023-05-10T16:02:24.176Z,15.46
2023-05-10T16:04:52.100Z,15.17
2023-05-10T16:07:19.808Z,15.77
2023-05-10T16:09:49.410Z,15.91
2023-05-10T16:12:17.570Z,15.74
2023-05-10T16:14:45.232Z,15.46
2023-05-10T16:17:13.115Z,15.66
2023-05-10T16:19:41.286Z,15.34
2023-05-10T16:22:09.065Z,15.68
2023-05-10T16:24:36.935Z,15.21
2023-05-10T16:27:04.577Z,15.36
2023-05-10T16:29:32.185Z,15.70
2023-05-10T16:32:02.854Z,16.22
2023-05-10T16:34:31.129Z,15.95
2023-05-10T16:37:00.908Z,15.85
2023-05-10T16:39:29.472Z,16.16
2023-05-10T16:42:00.458Z,15.92
2023-05-10T16:44:28.307Z,15.77
2023-05-10T16:46:56.091Z,16.33
2023-05-10T16:49:26.197Z,15.65
2023-05-10T16:51:54.153Z,15.43
2023-05-10T16:54:22.112Z,15.57
2023-05-10T16:56:49.795Z,15.82
2023-05-10T16:59:17.480Z,16.85
2023-05-10T17:01:46.083Z,16.52
2023-05-10T17:04:14.315Z,17.33
2023-05-10T17:06:42.213Z,16.92
2023-05-10T17:09:10.026Z,16.82
2023-05-10T17:11:37.864Z,17.28
2023-05-10T17:14:05.571Z,17.98
2023-05-10T17:16:33.328Z,16.60
2023-05-10T17:19:01.398Z,16.46
2023-05-10T17:21:29.152Z,17.01
2023-05-10T17:23:58.197Z,17.82
2023-05-10T17:26:27.599Z,17.51
2023-05-10T17:28:55.329Z,16.40
2023-05-10T17:31:23.201Z,16.79
2023-05-10T17:33:50.851Z,17.11
2023-05-10T17:36:21.167Z,17.53
2023-05-10T17:38:48.893Z,16.96
2023-05-10T17:41:16.999Z,16.48
2023-05-10T17:43:44.724Z,16.41
2023-05-10T17:46:15.227Z,16.32
2023-05-10T17:48:43.431Z,16.37
2023-05-10T17:51:14.270Z,15.95
2023-05-10T17:53:42.188Z,15.19
2023-05-10T17:56:10.528Z,16.19
2023-05-10T17:58:38.418Z,16.89
2023-05-10T18:01:08.002Z,17.03
2023-05-10T18:03:35.981Z,17.90
2023-05-10T18:06:04.420Z,16.84
2023-05-10T18:08:32.997Z,15.91
2023-05-10T18:11:00.528Z,16.43
2023-05-10T18:13:29.559Z,17.00
2023-05-10T18:15:57.295Z,16.80
2023-05-10T18:18:25.519Z,16.39
2023-05-10T18:20:56.683Z,16.24
2023-05-10T18:23:33.415Z,16.90
2023-05-10T18:26:02.609Z,16.36
2023-05-10T18:28:30.438Z,16.43
2023-05-10T18:30:58.242Z,15.53
2023-05-10T18:33:26.358Z,15.74
2023-05-10T18:35:57.104Z,15.93
2023-05-10T18:38:27.389Z,15.52
2023-05-10T18:40:57.592Z,15.83
2023-05-10T18:43:25.296Z,16.30
2023-05-10T18:45:53.191Z,17.41
2023-05-10T18:48:28.052Z,17.78
2023-05-10T18:50:56.014Z,18.30
2023-05-10T18:53:32.563Z,18.56
2023-05-10T18:56:00.338Z,18.86
2023-05-10T18:58:29.415Z,18.81
2023-05-10T19:00:58.749Z,18.47
2023-05-10T19:03:30.100Z,17.52
2023-05-10T19:05:58.078Z,17.78
2023-05-10T19:08:40.663Z,17.92
2023-05-10T19:12:00.254Z,18.18
2023-05-10T19:14:36.930Z,17.61
2023-05-10T19:17:05.257Z,17.37
2023-05-10T19:19:33.149Z,17.49
2023-05-10T19:22:03.668Z,17.73
2023-05-10T19:24:31.447Z,17.86
2023-05-10T19:27:00.025Z,17.22
2023-05-10T19:29:27.816Z,17.67
2023-05-10T19:31:55.512Z,17.05
2023-05-10T19:34:23.198Z,17.28
2023-05-10T19:36:52.258Z,17.20
2023-05-10T19:39:22.663Z,17.48
2023-05-10T19:41:50.577Z,17.17
2023-05-10T19:44:18.128Z,17.66
2023-05-10T19:46:48.348Z,17.10
2023-05-10T19:49:17.233Z,17.39
2023-05-10T19:51:48.073Z,17.21
2023-05-10T19:54:15.774Z,17.71
2023-05-10T19:56:43.429Z,17.80
2023-05-10T19:59:11.035Z,17.70
2023-05-10T20:01:38.968Z,17.71
2023-05-10T20:04:07.005Z,17.05
2023-05-10T20:06:34.784Z,17.01
2023-05-10T20:09:02.509Z,17.20
2023-05-10T20:11:30.307Z,17.36
2023-05-10T20:13:58.034Z,16.57
2023-05-10T20:16:26.869Z,16.48
2023-05-10T20:18:54.780Z,16.24
2023-05-10T20:21:23.799Z,17.00
2023-05-10T20:23:51.461Z,17.47
2023-05-10T20:26:19.133Z,17.87
2023-05-10T20:28:46.956Z,17.62
2023-05-10T20:31:14.596Z,17.93
2023-05-10T20:33:42.281Z,17.98
2023-05-10T20:36:10.171Z,17.56
2023-05-10T20:38:37.916Z,17.25
2023-05-10T20:41:05.606Z,17.14
2023-05-10T20:43:33.565Z,17.64
2023-05-10T20:46:05.322Z,17.11
2023-05-10T20:48:33.296Z,17.05
2023-05-10T20:51:02.117Z,17.07
2023-05-10T20:53:29.933Z,17.41
2023-05-10T20:55:57.640Z,17.61
2023-05-10T20:58:25.357Z,17.32
2023-05-10T21:00:52.929Z,17.24
2023-05-10T21:03:20.668Z,17.19
2023-05-10T21:05:48.287Z,17.74
2023-05-10T21:08:15.922Z,17.99
2023-05-10T21:10:43.601Z,18.27
2023-05-10T21:13:11.324Z,18.39
2023-05-10T21:15:39.257Z,18.49
2023-05-10T21:18:06.928Z,18.44
2023-05-10T21:20:34.503Z,18.59
2023-05-10T21:23:02.311Z,18.62
2023-05-10T21:25:29.893Z,18.77
2023-05-10T21:27:57.778Z,18.63
2023-05-10T21:30:25.712Z,18.77
2023-05-10T21:32:55.149Z,18.77
2023-05-10T21:35:22.796Z,18.84
2023-05-10T21:37:50.353Z,18.87
2023-05-10T21:40:18.604Z,18.44
2023-05-10T21:42:49.785Z,18.50
2023-05-10T21:45:19.105Z,18.57
2023-05-10T21:47:46.766Z,18.77
2023-05-10T21:50:14.537Z,18.72
2023-05-10T21:52:42.302Z,18.84
2023-05-10T21:55:10.395Z,18.81
2023-05-10T21:57:38.072Z,18.59
2023-05-10T22:00:06.952Z,18.61
2023-05-10T22:02:34.603Z,18.45
2023-05-10T22:05:03.685Z,18.58
2023-05-10T22:07:32.459Z,18.45
2023-05-10T22:09:59.990Z,18.18
2023-05-10T22:12:27.593Z,18.39
2023-05-10T22:15:09.482Z,18.32
2023-05-10T22:17:40.039Z,18.12
2023-05-10T22:20:08.995Z,18.14
2023-05-10T22:22:39.739Z,18.36
2023-05-10T22:25:08.240Z,18.35
2023-05-10T22:27:36.563Z,18.37
2023-05-10T22:30:05.095Z,18.38
2023-05-10T22:32:34.205Z,18.42
2023-05-10T22:35:02.404Z,18.37
2023-05-10T22:37:30.187Z,18.31
2023-05-10T22:39:57.762Z,18.05
2023-05-10T22:42:25.349Z,17.89
2023-05-10T22:44:53.022Z,17.99
2023-05-10T22:47:20.534Z,18.11
2023-05-10T22:49:48.361Z,18.14
2023-05-10T22:52:15.869Z,18.08
2023-05-10T22:54:44.204Z,18.21
2023-05-10T22:57:12.166Z,18.14
2023-05-10T22:59:39.797Z,18.18
2023-05-10T23:02:07.355Z,18.24
2023-05-10T23:04:35.092Z,18.24
2023-05-10T23:07:02.671Z,18.24
2023-05-10T23:09:30.184Z,18.26
2023-05-10T23:11:57.740Z,18.27
2023-05-10T23:14:25.280Z,18.36
2023-05-10T23:16:52.745Z,18.37
2023-05-10T23:19:20.238Z,18.34
2023-05-10T23:21:47.770Z,18.29
2023-05-10T23:24:15.370Z,18.36
2023-05-10T23:26:45.184Z,18.35
2023-05-10T23:29:12.778Z,18.31
2023-05-10T23:31:45.239Z,18.36
2023-05-10T23:34:13.192Z,18.36
2023-05-10T23:36:43.487Z,18.35
2023-05-10T23:39:11.995Z,18.37
2023-05-10T23:41:42.586Z,18.39
2023-05-10T23:44:10.148Z,18.39
2023-05-10T23:46:37.653Z,18.23
2023-05-10T23:49:05.212Z,18.31
2023-05-10T23:51:32.907Z,18.34
2023-05-10T23:54:00.546Z,18.29
2023-05-10T23:56:28.090Z,18.31
2023-05-10T23:58:55.712Z,18.34
